Polar, Wisconsin
Current Conditions -  °F | °C
As of 8:15 AM on Thursday 18 Dec 2014 (Local Time) from KAIG Reporting Station
Overcast Overcast  
Wind Chill: 11°   Ceiling: 1000
Heat Index: 20°   Visibility: 10mi
Dew Point: 18°   Wind: 8mph
Humidity: 91%   Direction: 40°NE
Pressure: 30.24"   Gusts: NA
Location:  45.2253°N, 88.9533°W
Report Text: KAIG 181415Z AUTO 04007KT 10SM OVC010 M06/M08 A3024 RMK AO2 T10641077
Loading
Personal Weather Stations






























Interactive Weather Map New forecast layout! Learn more

10-Day Weather Forecast

Advertisements
Track Severe Weather on mobile